Time;durP1;ratioP1;P1;durP2;ratioP2;P2;SDS_P1;SDS_P2;PMS_P1;PMS_P2;Temp;Humidity;BMP_temperature;BMP_pressure;BME280_temperature;BME280_humidity;BME280_pressure;Samples;Min_cycle;Max_cycle;Signal;HPM_P1;HPM_P2
2023/08/02 00:00:00;;;;;;;3.13;1.40;;;;;;;14.22;100.00;97386.81;4188411;28;20484;-72
2023/08/02 00:02:00;;;;;;;5.03;1.60;;;;;;;14.17;100.00;97376.22;4189377;28;20048;-72
2023/08/02 00:04:01;;;;;;;3.33;1.40;;;;;;;14.13;100.00;97378.28;4188614;28;20049;-72
2023/08/02 00:06:02;;;;;;;3.35;1.60;;;;;;;14.04;100.00;97376.06;4188776;28;20043;-73
2023/08/02 00:08:02;;;;;;;2.53;1.40;;;;;;;14.01;100.00;97377.72;4189035;28;20475;-73
2023/08/02 00:10:03;;;;;;;3.30;1.75;;;;;;;13.96;100.00;97377.41;4189112;28;20029;-72
2023/08/02 00:12:04;;;;;;;2.83;1.40;;;;;;;13.97;100.00;97387.31;4191616;28;20114;-73
2023/08/02 00:14:05;;;;;;;3.28;1.63;;;;;;;13.95;100.00;97384.97;4187595;28;20483;-73
2023/08/02 00:16:05;;;;;;;3.53;1.45;;;;;;;13.90;100.00;97387.47;4189233;28;20059;-72
2023/08/02 00:18:06;;;;;;;4.78;1.63;;;;;;;13.87;100.00;97389.09;4189503;28;20024;-72
2023/08/02 00:20:07;;;;;;;1.48;1.33;;;;;;;13.84;100.00;97384.41;4189159;28;20029;-72
2023/08/02 00:22:07;;;;;;;3.05;1.67;;;;;;;13.85;100.00;97380.41;4189303;28;20430;-72
2023/08/02 00:24:08;;;;;;;5.90;1.50;;;;;;;13.89;100.00;97381.13;4188571;28;20108;-73
2023/08/02 00:26:08;;;;;;;4.30;1.60;;;;;;;13.86;100.00;97370.84;4189501;28;20388;-72
2023/08/02 00:28:08;;;;;;;4.13;1.42;;;;;;;13.85;100.00;97374.06;4188571;28;20032;-72
2023/08/02 00:30:09;;;;;;;3.13;1.50;;;;;;;13.80;100.00;97371.78;4189218;28;20147;-72
2023/08/02 00:32:09;;;;;;;4.60;1.75;;;;;;;13.75;100.00;97370.28;4188189;28;20033;-72
2023/08/02 00:34:10;;;;;;;2.97;1.48;;;;;;;13.72;100.00;97371.13;4188290;28;20071;-72
2023/08/02 00:36:10;;;;;;;3.38;1.45;;;;;;;13.72;100.00;97374.69;4189701;28;20036;-72
2023/08/02 00:38:11;;;;;;;5.57;1.90;;;;;;;13.70;100.00;97374.31;4192108;28;20040;-73
2023/08/02 00:40:11;;;;;;;3.85;1.38;;;;;;;13.70;100.00;97384.66;4192775;28;20175;-72
2023/08/02 00:42:12;;;;;;;3.67;1.33;;;;;;;13.65;100.00;97385.13;4192233;28;20047;-72
2023/08/02 00:44:12;;;;;;;4.32;1.50;;;;;;;13.63;100.00;97384.78;4191749;28;20047;-72
2023/08/02 00:46:14;;;;;;;2.05;1.40;;;;;;;13.62;100.00;97369.31;4192495;28;20147;-72
2023/08/02 00:48:15;;;;;;;3.13;1.50;;;;;;;13.63;100.00;97382.00;4191508;28;20472;-72
2023/08/02 00:50:16;;;;;;;4.55;1.50;;;;;;;13.61;100.00;97364.97;4192394;28;20146;-72
2023/08/02 00:52:16;;;;;;;2.35;1.40;;;;;;;13.58;100.00;97377.75;4192339;28;20032;-73
2023/08/02 00:54:16;;;;;;;2.97;1.60;;;;;;;13.54;100.00;97368.66;4191582;28;20033;-72
2023/08/02 00:56:17;;;;;;;8.25;1.40;;;;;;;13.54;100.00;97388.13;4191777;28;20039;-72
2023/08/02 00:58:17;;;;;;;3.45;1.60;;;;;;;13.57;100.00;97375.38;4191913;28;20046;-72
2023/08/02 01:00:18;;;;;;;5.32;1.75;;;;;;;13.58;100.00;97380.53;4192653;28;20032;-72
2023/08/02 01:02:18;;;;;;;3.45;1.55;;;;;;;13.59;100.00;97368.19;4191677;28;20083;-72
2023/08/02 01:04:19;;;;;;;2.13;1.05;;;;;;;13.61;100.00;97357.44;4192602;28;20093;-73
2023/08/02 01:06:28;;;;;;;3.38;1.27;;;;;;;13.67;100.00;97357.72;4190995;28;20040;-72
2023/08/02 01:08:33;;;;;;;2.20;1.35;;;;;;;13.67;100.00;97358.50;4191852;28;20376;-72
2023/08/02 01:10:56;;;;;;;2.40;1.40;;;;;;;13.64;100.00;97353.78;4193774;28;20484;-72
2023/08/02 01:12:59;;;;;;;5.53;1.35;;;;;;;13.66;100.00;97353.38;4191088;28;20037;-72
2023/08/02 01:15:02;;;;;;;3.58;1.60;;;;;;;13.65;100.00;97351.78;4191642;28;20048;-72
2023/08/02 01:17:03;;;;;;;5.38;1.58;;;;;;;13.67;100.00;97354.94;4191626;28;20033;-72
2023/08/02 01:19:10;;;;;;;3.90;1.55;;;;;;;13.65;100.00;97346.22;4191334;28;20048;-72
2023/08/02 01:21:11;;;;;;;4.85;1.20;;;;;;;13.69;100.00;97344.19;4191138;28;20575;-72
2023/08/02 01:23:11;;;;;;;7.45;1.75;;;;;;;13.72;100.00;97343.31;4191293;28;20179;-72
2023/08/02 01:25:12;;;;;;;2.45;1.30;;;;;;;13.80;100.00;97341.19;4191141;28;20080;-72
2023/08/02 01:27:21;;;;;;;3.17;1.92;;;;;;;13.78;100.00;97330.50;4191781;28;20048;-72
2023/08/02 01:29:24;;;;;;;2.55;1.30;;;;;;;13.79;100.00;97334.84;4191644;28;20125;-72
2023/08/02 01:31:25;;;;;;;4.15;1.83;;;;;;;13.87;100.00;97333.50;4191556;28;20049;-72
2023/08/02 01:33:26;;;;;;;4.72;1.35;;;;;;;13.89;100.00;97333.06;4190781;28;20110;-72
2023/08/02 01:35:27;;;;;;;2.28;1.30;;;;;;;13.92;100.00;97340.56;4191815;28;20053;-72
2023/08/02 01:37:27;;;;;;;4.20;1.80;;;;;;;13.91;100.00;97325.88;4191330;28;20045;-72
2023/08/02 01:39:28;;;;;;;2.35;1.40;;;;;;;13.90;100.00;97326.28;4191784;28;20519;-72
2023/08/02 01:41:28;;;;;;;3.00;1.65;;;;;;;13.90;100.00;97317.94;4191701;28;20040;-72
2023/08/02 01:43:28;;;;;;;2.75;1.48;;;;;;;13.89;100.00;97319.16;4191022;28;20055;-72
2023/08/02 01:45:29;;;;;;;3.75;1.63;;;;;;;13.91;100.00;97313.97;4191083;28;20052;-72
2023/08/02 01:47:29;;;;;;;3.38;1.50;;;;;;;13.97;100.00;97320.59;4191051;28;20484;-72
2023/08/02 01:49:29;;;;;;;2.17;1.42;;;;;;;13.99;100.00;97315.41;4191166;28;20156;-72
2023/08/02 01:51:30;;;;;;;3.35;1.60;;;;;;;14.00;100.00;97312.19;4191085;28;20105;-72
2023/08/02 01:53:30;;;;;;;3.40;1.30;;;;;;;14.06;100.00;97306.88;4191293;28;20372;-72
2023/08/02 01:55:30;;;;;;;3.58;1.75;;;;;;;14.09;100.00;97314.38;4190532;28;20129;-72
2023/08/02 01:57:30;;;;;;;3.72;1.40;;;;;;;14.08;100.00;97320.38;4190975;28;20079;-72
2023/08/02 01:59:31;;;;;;;4.00;1.40;;;;;;;14.08;100.00;97309.25;4191432;28;20082;-72
2023/08/02 02:01:31;;;;;;;3.85;1.75;;;;;;;14.09;100.00;97294.13;4191203;28;20372;-72
2023/08/02 02:03:31;;;;;;;3.00;1.50;;;;;;;14.09;100.00;97291.34;4186423;28;20488;-72
2023/08/02 02:05:32;;;;;;;3.42;1.75;;;;;;;14.13;100.00;97303.19;4187633;28;20533;-72
2023/08/02 02:07:32;;;;;;;3.70;1.60;;;;;;;14.11;100.00;97291.69;4189800;28;20075;-72
2023/08/02 02:09:32;;;;;;;1.90;1.67;;;;;;;14.10;100.00;97293.69;4170200;28;20033;-72
2023/08/02 02:11:33;;;;;;;2.97;1.73;;;;;;;14.11;100.00;97306.41;4189709;28;20119;-72
2023/08/02 02:13:33;;;;;;;3.08;1.67;;;;;;;14.18;100.00;97303.47;4187760;28;20389;-73
2023/08/02 02:15:33;;;;;;;5.78;1.90;;;;;;;14.22;100.00;97300.59;4189400;28;20457;-72
2023/08/02 02:17:34;;;;;;;5.55;2.15;;;;;;;14.29;100.00;97292.09;4189712;28;20312;-72
2023/08/02 02:19:34;;;;;;;2.95;2.00;;;;;;;14.32;100.00;97292.03;4191091;28;20051;-72
2023/08/02 02:21:34;;;;;;;3.90;2.10;;;;;;;14.34;100.00;97286.03;4190630;28;20115;-72
2023/08/02 02:23:35;;;;;;;4.28;1.83;;;;;;;14.38;100.00;97291.50;4189965;28;20048;-73
2023/08/02 02:25:35;;;;;;;3.13;1.95;;;;;;;14.40;100.00;97289.88;4186885;28;20385;-73
2023/08/02 02:27:36;;;;;;;5.30;2.28;;;;;;;14.39;100.00;97276.38;4188841;28;20496;-72
2023/08/02 02:29:36;;;;;;;4.13;2.10;;;;;;;14.40;100.00;97287.09;4190430;28;20033;-72
2023/08/02 02:31:36;;;;;;;3.40;1.85;;;;;;;14.42;100.00;97275.53;4190427;28;20040;-72
2023/08/02 02:33:36;;;;;;;3.00;1.50;;;;;;;14.44;100.00;97273.09;4187942;28;20062;-72
2023/08/02 02:35:37;;;;;;;3.90;1.85;;;;;;;14.44;100.00;97279.44;4190058;28;20054;-72
2023/08/02 02:37:37;;;;;;;4.07;1.60;;;;;;;14.45;100.00;97280.22;4188412;28;20041;-72
2023/08/02 02:39:37;;;;;;;4.25;1.52;;;;;;;14.40;100.00;97270.41;4190870;28;20166;-72
2023/08/02 02:41:38;;;;;;;2.45;1.30;;;;;;;14.43;100.00;97269.53;4189178;28;20129;-72
2023/08/02 02:43:38;;;;;;;2.20;1.45;;;;;;;14.43;100.00;97266.75;4189091;28;20064;-72
2023/08/02 02:45:38;;;;;;;1.98;1.42;;;;;;;14.43;100.00;97274.31;4173252;28;20151;-72
2023/08/02 02:47:39;;;;;;;2.15;1.30;;;;;;;14.40;100.00;97267.63;4191165;28;20408;-73
2023/08/02 02:49:39;;;;;;;2.85;1.42;;;;;;;14.38;100.00;97270.03;4190691;28;20043;-72
2023/08/02 02:51:39;;;;;;;2.67;1.20;;;;;;;14.39;100.00;97263.25;4190553;28;20443;-72
2023/08/02 02:53:40;;;;;;;2.45;1.20;;;;;;;14.41;100.00;97282.31;4189654;28;20068;-72
2023/08/02 02:55:40;;;;;;;1.85;1.23;;;;;;;14.37;100.00;97279.59;4190342;28;20115;-72
2023/08/02 02:57:40;;;;;;;1.73;1.02;;;;;;;14.36;100.00;97275.25;4189667;28;20053;-72
2023/08/02 02:59:41;;;;;;;1.65;1.08;;;;;;;14.32;100.00;97278.13;4188292;28;20048;-72
2023/08/02 03:01:41;;;;;;;1.98;1.38;;;;;;;14.33;100.00;97276.13;4190314;28;20040;-72
2023/08/02 03:03:41;;;;;;;1.52;0.98;;;;;;;14.32;100.00;97274.56;4189269;28;20036;-72
2023/08/02 03:05:42;;;;;;;3.30;1.30;;;;;;;14.26;100.00;97279.84;4190468;28;20139;-72
2023/08/02 03:07:42;;;;;;;1.48;0.98;;;;;;;14.26;100.00;97277.06;4190218;28;20084;-72
2023/08/02 03:09:42;;;;;;;1.20;1.02;;;;;;;14.23;100.00;97277.13;4190198;28;20616;-72
2023/08/02 03:11:43;;;;;;;1.08;0.90;;;;;;;14.23;100.00;97275.16;4190403;28;20091;-72
2023/08/02 03:13:43;;;;;;;1.98;1.02;;;;;;;14.23;100.00;97274.34;4189253;28;20128;-72
2023/08/02 03:15:43;;;;;;;1.90;1.10;;;;;;;14.22;100.00;97262.44;4189460;28;20052;-72
2023/08/02 03:17:44;;;;;;;3.10;1.13;;;;;;;14.22;100.00;97270.00;4189885;28;20056;-72
2023/08/02 03:19:44;;;;;;;2.58;1.27;;;;;;;14.18;100.00;97264.53;4171585;28;20051;-72
2023/08/02 03:21:44;;;;;;;2.05;1.20;;;;;;;14.20;100.00;97270.44;4190168;28;20044;-72
2023/08/02 03:23:45;;;;;;;2.95;1.38;;;;;;;14.18;100.00;97266.53;4189645;28;20504;-73
2023/08/02 03:25:45;;;;;;;4.75;1.50;;;;;;;14.13;100.00;97265.00;4189902;28;20092;-72
2023/08/02 03:27:45;;;;;;;1.15;0.98;;;;;;;14.15;100.00;97257.06;4189566;28;20068;-73
2023/08/02 03:29:46;;;;;;;3.08;1.15;;;;;;;14.12;100.00;97257.09;4188747;28;20131;-73
2023/08/02 03:31:46;;;;;;;2.75;1.67;;;;;;;14.12;100.00;97266.25;4190657;28;20079;-72
2023/08/02 03:33:46;;;;;;;2.05;1.50;;;;;;;14.11;100.00;97266.66;4188733;28;20048;-73
2023/08/02 03:35:47;;;;;;;5.22;1.50;;;;;;;14.08;100.00;97253.63;4189491;28;20090;-72
2023/08/02 03:37:47;;;;;;;1.83;1.20;;;;;;;14.06;100.00;97246.47;4189380;28;20140;-72
2023/08/02 03:39:47;;;;;;;3.30;1.58;;;;;;;14.05;100.00;97247.69;4191606;28;20040;-73
2023/08/02 03:41:47;;;;;;;2.30;1.65;;;;;;;14.08;100.00;97251.63;4189735;28;20559;-72
2023/08/02 03:43:48;;;;;;;3.80;1.83;;;;;;;14.08;100.00;97243.28;4187910;28;20324;-72
2023/08/02 03:45:49;;;;;;;5.07;1.77;;;;;;;14.07;100.00;97241.72;4189859;28;20083;-73
2023/08/02 03:47:50;;;;;;;2.45;1.52;;;;;;;14.06;100.00;97234.56;4189342;28;20506;-72
2023/08/02 03:49:50;;;;;;;1.63;1.40;;;;;;;14.08;100.00;97223.03;4190623;28;20119;-73
2023/08/02 03:51:50;;;;;;;3.05;1.70;;;;;;;14.18;100.00;97233.13;4190355;28;20136;-72
2023/08/02 03:53:51;;;;;;;4.35;2.17;;;;;;;14.20;100.00;97236.25;4188315;28;20040;-73
2023/08/02 03:55:51;;;;;;;3.47;1.90;;;;;;;14.23;100.00;97238.97;4189059;28;20037;-72
2023/08/02 03:57:51;;;;;;;3.28;2.00;;;;;;;14.24;100.00;97236.97;4171352;28;20041;-72
2023/08/02 03:59:51;;;;;;;3.65;2.00;;;;;;;14.22;100.00;97228.25;4189625;28;20448;-73
2023/08/02 04:01:52;;;;;;;3.50;2.13;;;;;;;14.26;100.00;97238.09;4181862;28;20651;-72
2023/08/02 04:03:52;;;;;;;3.58;2.10;;;;;;;14.27;100.00;97228.53;4186068;28;20072;-73
2023/08/02 04:05:52;;;;;;;3.17;2.08;;;;;;;14.31;100.00;97217.31;4188307;28;20091;-73
2023/08/02 04:07:53;;;;;;;2.83;1.90;;;;;;;14.35;100.00;97215.25;4188860;28;20143;-72
2023/08/02 04:09:53;;;;;;;3.38;2.10;;;;;;;14.39;100.00;97218.72;4188248;28;20506;-73
2023/08/02 04:11:53;;;;;;;3.00;2.10;;;;;;;14.39;100.00;97210.38;4188255;28;20064;-72
2023/08/02 04:13:54;;;;;;;3.15;2.03;;;;;;;14.42;100.00;97206.75;4187531;28;20066;-72
2023/08/02 04:15:54;;;;;;;2.38;2.10;;;;;;;14.43;100.00;97194.38;4188889;28;20079;-72
2023/08/02 04:17:54;;;;;;;6.00;2.88;;;;;;;14.51;100.00;97195.03;4187872;28;20048;-72
2023/08/02 04:19:55;;;;;;;3.58;2.00;;;;;;;14.54;100.00;97194.94;4188991;28;20595;-72
2023/08/02 04:21:55;;;;;;;4.53;2.83;;;;;;;14.63;100.00;97197.09;4188300;28;20109;-72
2023/08/02 04:23:55;;;;;;;3.30;1.83;;;;;;;14.65;100.00;97188.34;4187493;28;20075;-72
2023/08/02 04:25:56;;;;;;;3.45;2.05;;;;;;;14.71;100.00;97186.56;4187332;28;20032;-72
2023/08/02 04:27:56;;;;;;;3.50;2.15;;;;;;;14.78;100.00;97180.81;4188590;28;20122;-72
2023/08/02 04:29:56;;;;;;;3.03;1.90;;;;;;;14.76;100.00;97180.47;4187188;28;20128;-72
2023/08/02 04:31:57;;;;;;;2.63;1.88;;;;;;;14.80;100.00;97181.94;4186126;28;20047;-72
2023/08/02 04:33:57;;;;;;;5.50;2.05;;;;;;;14.85;100.00;97197.34;4187486;28;20407;-72
2023/08/02 04:35:59;;;;;;;3.40;1.98;;;;;;;14.87;100.00;97200.47;4187756;28;20067;-72
2023/08/02 04:37:59;;;;;;;3.55;1.90;;;;;;;14.84;100.00;97204.91;4188273;28;20043;-73
2023/08/02 04:39:59;;;;;;;3.92;2.08;;;;;;;14.87;100.00;97206.81;4188617;28;20044;-72
2023/08/02 04:42:02;;;;;;;2.80;1.80;;;;;;;14.86;100.00;97193.34;4188214;28;20029;-72
2023/08/02 04:44:03;;;;;;;3.33;2.15;;;;;;;14.87;100.00;97200.47;4187063;28;21406;-72
2023/08/02 04:46:03;;;;;;;4.60;2.05;;;;;;;14.89;100.00;97203.59;4185606;28;20071;-73
2023/08/02 04:48:03;;;;;;;3.00;2.13;;;;;;;14.92;100.00;97204.75;4180691;28;20043;-73
2023/08/02 04:50:05;;;;;;;2.92;2.20;;;;;;;14.89;100.00;97196.03;4188306;28;20492;-73
2023/08/02 04:52:05;;;;;;;3.67;2.20;;;;;;;14.92;100.00;97188.81;4187352;28;20039;-73
2023/08/02 04:54:05;;;;;;;2.70;1.90;;;;;;;14.95;100.00;97179.56;4186186;28;20060;-73
2023/08/02 04:56:09;;;;;;;2.90;2.20;;;;;;;14.98;100.00;97192.63;4151057;28;20120;-73
2023/08/02 04:58:09;;;;;;;5.13;2.35;;;;;;;15.02;100.00;97195.31;4186069;28;20393;-73
2023/08/02 05:00:10;;;;;;;3.05;1.92;;;;;;;15.04;100.00;97181.72;4185099;28;20033;-73
2023/08/02 05:02:10;;;;;;;5.03;1.90;;;;;;;15.06;100.00;97188.44;4184364;28;20295;-73
2023/08/02 05:04:11;;;;;;;3.90;1.75;;;;;;;15.15;100.00;97190.59;4185901;28;20127;-73
2023/08/02 05:06:11;;;;;;;4.47;1.85;;;;;;;15.16;100.00;97200.50;4188532;28;20462;-72
2023/08/02 05:08:12;;;;;;;3.03;1.70;;;;;;;15.16;100.00;97192.16;4185412;28;20517;-73
2023/08/02 05:10:12;;;;;;;3.95;1.98;;;;;;;15.19;100.00;97202.41;4186526;28;20385;-73
2023/08/02 05:12:12;;;;;;;2.50;1.83;;;;;;;15.23;100.00;97205.13;4190809;28;20025;-72
2023/08/02 05:14:13;;;;;;;3.78;2.30;;;;;;;15.26;100.00;97191.06;4187276;28;20302;-73
2023/08/02 05:16:14;;;;;;;3.45;1.92;;;;;;;15.25;100.00;97185.94;4187639;28;20123;-72
2023/08/02 05:18:14;;;;;;;4.25;2.03;;;;;;;15.32;100.00;97174.59;4190530;28;20063;-72
2023/08/02 05:20:14;;;;;;;5.03;1.90;;;;;;;15.40;100.00;97182.31;4189160;28;20033;-72
2023/08/02 05:22:15;;;;;;;4.30;2.05;;;;;;;15.50;100.00;97186.03;4188790;28;20040;-72
2023/08/02 05:24:15;;;;;;;2.55;1.92;;;;;;;15.53;100.00;97189.91;4190170;28;20029;-73
2023/08/02 05:26:15;;;;;;;2.30;1.80;;;;;;;15.53;100.00;97198.28;4173901;28;20056;-72
2023/08/02 05:28:16;;;;;;;3.78;1.80;;;;;;;15.57;100.00;97198.97;4191400;28;20439;-72
2023/08/02 05:30:16;;;;;;;3.45;1.50;;;;;;;15.56;100.00;97184.25;4191040;28;20507;-72
2023/08/02 05:32:16;;;;;;;2.70;1.70;;;;;;;15.57;100.00;97174.66;4191940;28;20041;-73
2023/08/02 05:34:17;;;;;;;4.32;2.00;;;;;;;15.55;100.00;97171.53;4190447;28;20021;-73
2023/08/02 05:36:17;;;;;;;3.40;1.70;;;;;;;15.58;100.00;97176.22;4190997;28;20038;-72
2023/08/02 05:38:17;;;;;;;3.28;1.60;;;;;;;15.58;100.00;97167.09;4191564;28;20139;-73
2023/08/02 05:40:18;;;;;;;2.83;1.70;;;;;;;15.60;100.00;97179.34;4190643;28;20098;-73
2023/08/02 05:42:19;;;;;;;2.58;1.90;;;;;;;15.62;100.00;97165.00;4190114;28;20550;-73
2023/08/02 05:44:19;;;;;;;3.17;1.73;;;;;;;15.60;100.00;97162.63;4189443;28;20397;-72
2023/08/02 05:46:19;;;;;;;2.40;1.75;;;;;;;15.62;100.00;97167.78;4190043;28;20032;-73
2023/08/02 05:48:20;;;;;;;3.22;1.70;;;;;;;15.62;100.00;97171.34;4189493;28;20047;-73
2023/08/02 05:50:20;;;;;;;5.75;1.90;;;;;;;15.61;100.00;97161.41;4190297;28;20219;-72
2023/08/02 05:52:20;;;;;;;3.35;1.70;;;;;;;15.64;100.00;97168.13;4190620;28;20051;-72
2023/08/02 05:54:21;;;;;;;2.90;1.73;;;;;;;15.65;100.00;97162.13;4189731;28;20044;-72
2023/08/02 05:56:21;;;;;;;3.00;1.85;;;;;;;15.63;100.00;97158.97;4191113;28;20033;-73
2023/08/02 05:58:22;;;;;;;4.85;2.65;;;;;;;15.66;100.00;97149.72;4190054;28;20048;-72
2023/08/02 06:00:23;;;;;;;2.92;1.52;;;;;;;15.65;100.00;97139.81;4191453;28;20048;-73
2023/08/02 06:02:23;;;;;;;3.17;2.05;;;;;;;15.66;100.00;97135.78;4191059;28;20185;-73
2023/08/02 06:04:24;;;;;;;4.93;2.20;;;;;;;15.66;100.00;97141.38;4190492;28;20044;-73
2023/08/02 06:06:24;;;;;;;3.22;1.80;;;;;;;15.68;100.00;97140.91;4191176;28;20032;-73
2023/08/02 06:08:24;;;;;;;2.92;1.90;;;;;;;15.68;100.00;97129.75;4191122;28;20713;-72
2023/08/02 06:10:25;;;;;;;3.10;1.80;;;;;;;15.67;100.00;97134.56;4191115;28;20045;-73
2023/08/02 06:12:25;;;;;;;2.75;2.03;;;;;;;15.71;100.00;97132.44;4190927;28;20040;-72
2023/08/02 06:14:25;;;;;;;5.75;2.60;;;;;;;15.72;100.00;97117.28;4190706;28;20127;-72
2023/08/02 06:16:26;;;;;;;2.33;2.10;;;;;;;15.76;100.00;97124.75;4190930;28;20037;-72
2023/08/02 06:18:27;;;;;;;4.10;2.25;;;;;;;15.75;100.00;97112.81;4191185;28;20047;-72
2023/08/02 06:20:27;;;;;;;3.42;2.30;;;;;;;15.78;100.00;97114.72;4191124;28;20492;-72
2023/08/02 06:22:28;;;;;;;3.75;2.22;;;;;;;15.80;100.00;97112.25;4190304;28;20044;-73
2023/08/02 06:24:29;;;;;;;3.20;2.35;;;;;;;15.85;100.00;97114.50;4190630;28;20059;-72
2023/08/02 06:26:30;;;;;;;3.72;2.63;;;;;;;15.85;100.00;97119.28;4190672;28;20072;-73
2023/08/02 06:28:30;;;;;;;3.72;2.47;;;;;;;15.89;100.00;97117.19;4190972;28;20063;-73
2023/08/02 06:30:31;;;;;;;4.78;2.72;;;;;;;15.94;100.00;97113.81;4190547;28;20131;-72
2023/08/02 06:32:31;;;;;;;4.10;2.42;;;;;;;15.91;100.00;97095.97;4190537;28;20059;-73
2023/08/02 06:34:31;;;;;;;4.50;2.58;;;;;;;15.94;100.00;97100.66;4172603;28;20443;-73
2023/08/02 06:36:32;;;;;;;5.18;2.67;;;;;;;15.96;100.00;97100.97;4190658;28;20044;-72
2023/08/02 06:38:32;;;;;;;4.10;2.83;;;;;;;15.97;100.00;97105.34;4190492;28;20307;-73
2023/08/02 06:40:32;;;;;;;5.07;2.70;;;;;;;16.02;100.00;97102.00;4190843;28;20044;-72
2023/08/02 06:42:33;;;;;;;3.67;2.17;;;;;;;16.01;100.00;97100.44;4189972;28;20072;-73
2023/08/02 06:44:33;;;;;;;4.22;2.95;;;;;;;15.98;100.00;97092.19;4190967;28;20033;-73
2023/08/02 06:46:33;;;;;;;5.60;3.05;;;;;;;15.97;100.00;97082.22;4190703;28;20052;-73
2023/08/02 06:48:34;;;;;;;4.53;2.83;;;;;;;16.00;100.00;97081.34;4189807;28;20037;-72
2023/08/02 06:50:37;;;;;;;5.60;3.10;;;;;;;16.01;100.00;97071.75;4190711;28;20036;-73
2023/08/02 06:52:37;;;;;;;4.43;2.92;;;;;;;16.04;100.00;97068.06;4189621;28;20415;-73
2023/08/02 06:54:38;;;;;;;4.10;3.70;;;;;;;16.09;100.00;97067.50;4190054;28;20036;-72
2023/08/02 06:56:38;;;;;;;5.70;3.63;;;;;;;16.12;100.00;97065.81;4190731;28;20045;-73
2023/08/02 06:58:39;;;;;;;6.88;3.80;;;;;;;16.25;100.00;97077.75;4190317;28;20412;-73
2023/08/02 07:00:40;;;;;;;4.47;3.67;;;;;;;16.31;100.00;97092.69;4189268;28;20060;-73
2023/08/02 07:02:40;;;;;;;4.78;3.47;;;;;;;16.36;100.00;97082.97;4189766;28;20093;-73
2023/08/02 07:04:40;;;;;;;6.15;4.05;;;;;;;16.39;100.00;97085.66;4190106;28;20083;-73
2023/08/02 07:06:41;;;;;;;4.15;3.28;;;;;;;16.47;100.00;97081.38;4190216;28;20177;-73
2023/08/02 07:08:42;;;;;;;5.10;3.35;;;;;;;16.51;100.00;97082.03;4189985;28;20072;-72
2023/08/02 07:10:42;;;;;;;4.82;3.38;;;;;;;16.56;100.00;97083.47;4190450;28;20419;-73
2023/08/02 07:12:42;;;;;;;4.97;3.53;;;;;;;16.61;100.00;97079.31;4189399;28;20751;-73
2023/08/02 07:14:43;;;;;;;3.88;3.45;;;;;;;16.64;100.00;97079.22;4190052;28;20075;-73
2023/08/02 07:16:43;;;;;;;4.18;3.20;;;;;;;16.64;100.00;97073.63;4190637;28;20477;-72
2023/08/02 07:18:43;;;;;;;4.18;3.58;;;;;;;16.65;100.00;97074.41;4190197;28;20044;-73
2023/08/02 07:20:44;;;;;;;5.80;3.20;;;;;;;16.62;100.00;97067.69;4189995;28;20337;-73
2023/08/02 07:22:44;;;;;;;5.57;3.33;;;;;;;16.60;100.00;97072.97;4188232;28;20138;-73
2023/08/02 07:24:45;;;;;;;5.53;3.28;;;;;;;16.66;100.00;97082.31;4189325;28;20139;-72
2023/08/02 07:26:45;;;;;;;4.82;3.20;;;;;;;16.66;100.00;97075.97;4190076;28;20120;-73
2023/08/02 07:28:45;;;;;;;4.97;3.10;;;;;;;16.71;100.00;97080.97;4189802;28;20068;-73
2023/08/02 07:30:46;;;;;;;4.68;3.00;;;;;;;16.73;100.00;97084.13;4189976;28;20076;-73
2023/08/02 07:32:46;;;;;;;5.82;2.63;;;;;;;16.77;100.00;97081.97;4189362;28;20080;-73
2023/08/02 07:34:46;;;;;;;3.63;2.83;;;;;;;16.83;100.00;97072.56;4189793;28;20198;-73
2023/08/02 07:36:47;;;;;;;4.07;3.00;;;;;;;16.89;100.00;97075.56;4188966;28;20132;-73
2023/08/02 07:38:47;;;;;;;3.33;2.80;;;;;;;16.96;100.00;97057.75;4189971;28;20203;-72
2023/08/02 07:40:48;;;;;;;4.20;2.75;;;;;;;17.01;100.00;97046.00;4190028;28;20037;-72
2023/08/02 07:42:48;;;;;;;4.10;2.28;;;;;;;17.06;100.00;97039.81;4188946;28;20313;-73
2023/08/02 07:45:06;;;;;;;4.30;2.40;;;;;;;17.04;100.00;97025.50;4188846;28;20040;-73
2023/08/02 07:47:06;;;;;;;3.90;2.90;;;;;;;17.02;100.00;97019.59;4189655;28;20064;-73
2023/08/02 07:49:07;;;;;;;3.67;2.65;;;;;;;16.96;100.00;97019.41;4189721;28;20036;-73
2023/08/02 07:51:07;;;;;;;3.15;2.33;;;;;;;16.91;100.00;97017.22;4188023;28;20041;-73
2023/08/02 07:53:07;;;;;;;3.35;2.53;;;;;;;16.88;100.00;97025.72;4188800;28;20076;-73
2023/08/02 07:55:08;;;;;;;5.35;3.63;;;;;;;16.90;100.00;97023.28;4189152;28;20114;-73
2023/08/02 07:57:08;;;;;;;6.13;2.50;;;;;;;16.84;100.00;97025.84;4188939;28;20044;-73
2023/08/02 07:59:08;;;;;;;3.03;2.35;;;;;;;16.86;100.00;97040.16;4189818;28;20036;-73
2023/08/02 08:01:10;;;;;;;3.60;2.25;;;;;;;16.84;100.00;97020.28;4189492;28;20458;-73
2023/08/02 08:03:10;;;;;;;4.75;2.72;;;;;;;16.87;100.00;97021.38;4188812;28;20468;-73
2023/08/02 08:05:11;;;;;;;3.25;1.83;;;;;;;16.84;100.00;97023.84;4189010;28;20610;-73
2023/08/02 08:07:11;;;;;;;4.95;3.08;;;;;;;16.86;100.00;97015.00;4189551;28;20376;-73
2023/08/02 08:09:11;;;;;;;2.88;2.28;;;;;;;16.87;100.00;97021.38;4189092;28;20114;-73
2023/08/02 08:11:12;;;;;;;4.28;2.65;;;;;;;16.87;100.00;97021.38;4189394;28;20177;-73
2023/08/02 08:13:13;;;;;;;3.47;1.90;;;;;;;16.88;100.00;97029.31;4188970;28;20056;-73
2023/08/02 08:15:13;;;;;;;3.75;2.20;;;;;;;16.89;100.00;97041.28;4188868;28;20090;-73
2023/08/02 08:17:13;;;;;;;3.40;2.05;;;;;;;16.93;100.00;97042.69;4189403;28;20194;-73
2023/08/02 08:19:14;;;;;;;3.80;2.17;;;;;;;16.93;100.00;97036.31;4189448;28;20033;-73
2023/08/02 08:21:14;;;;;;;5.18;2.35;;;;;;;16.89;100.00;97027.31;4189582;28;20041;-73
2023/08/02 08:23:14;;;;;;;3.25;2.00;;;;;;;16.87;100.00;97022.16;4188315;28;20055;-73
2023/08/02 08:25:15;;;;;;;4.65;2.30;;;;;;;16.82;100.00;97023.53;4188434;28;20064;-73
2023/08/02 08:27:15;;;;;;;5.00;2.42;;;;;;;16.76;100.00;97019.75;4171152;28;20045;-73
2023/08/02 08:29:17;;;;;;;4.85;2.67;;;;;;;16.73;100.00;97020.66;4188532;28;20046;-73
2023/08/02 08:31:17;;;;;;;4.20;2.17;;;;;;;16.70;100.00;97021.56;4189795;28;20492;-73
2023/08/02 08:33:17;;;;;;;3.42;2.10;;;;;;;16.67;100.00;97016.09;4188530;28;20122;-73
2023/08/02 08:35:18;;;;;;;4.68;2.42;;;;;;;16.64;100.00;97022.59;4188622;28;20147;-73
2023/08/02 08:37:18;;;;;;;3.88;2.30;;;;;;;16.67;100.00;97007.72;4189592;28;20444;-73
2023/08/02 08:39:19;;;;;;;4.72;2.38;;;;;;;16.66;100.00;96997.78;4189179;28;20457;-73
2023/08/02 08:41:20;;;;;;;2.90;2.40;;;;;;;16.64;100.00;97003.03;4188990;28;20050;-73
2023/08/02 08:43:28;;;;;;;2.90;2.20;;;;;;;16.56;100.00;96999.72;4188505;28;20492;-73
2023/08/02 08:45:30;;;;;;;5.13;2.70;;;;;;;16.51;100.00;96997.50;4187234;28;20048;-73
2023/08/02 08:47:30;;;;;;;;;;;;;;;16.52;100.00;96991.47;4189880;28;20044;-73
2023/08/02 08:49:31;;;;;;;4.97;2.33;;;;;;;16.51;100.00;96980.75;4188757;28;19995;-73
2023/08/02 08:51:39;;;;;;;4.63;2.65;;;;;;;16.56;100.00;96969.00;4189141;28;20075;-73
2023/08/02 08:53:43;;;;;;;5.38;2.30;;;;;;;16.59;100.00;96959.72;4187856;28;20132;-73
2023/08/02 08:55:48;;;;;;;4.07;2.13;;;;;;;16.60;100.00;96964.06;4188689;28;20404;-73
2023/08/02 08:57:50;;;;;;;3.75;2.30;;;;;;;16.59;100.00;96968.09;4190098;28;20044;-73
2023/08/02 08:59:50;;;;;;;3.97;2.50;;;;;;;16.57;100.00;96962.97;4192105;28;20220;-73
2023/08/02 09:01:51;;;;;;;4.10;2.22;;;;;;;16.61;100.00;96959.25;4192468;28;20047;-73
2023/08/02 09:03:52;;;;;;;4.60;2.50;;;;;;;16.66;100.00;96962.25;4190749;28;20036;-73
2023/08/02 09:05:53;;;;;;;5.40;2.58;;;;;;;16.64;100.00;96952.78;4191908;28;20047;-73
2023/08/02 09:07:59;;;;;;;5.43;2.30;;;;;;;16.65;100.00;96963.50;4192532;28;20052;-73
2023/08/02 09:10:00;;;;;;;4.07;2.47;;;;;;;16.67;100.00;96954.66;4192249;28;20143;-73
2023/08/02 09:12:01;;;;;;;3.97;2.45;;;;;;;16.70;100.00;96957.34;4192167;28;20040;-73
2023/08/02 09:14:12;;;;;;;2.97;2.10;;;;;;;16.70;100.00;96954.53;4191217;28;20197;-73
2023/08/02 09:16:14;;;;;;;5.93;2.10;;;;;;;16.68;100.00;96954.19;4192004;28;20036;-73
2023/08/02 09:18:15;;;;;;;3.25;1.73;;;;;;;16.74;100.00;96946.03;4191023;28;20361;-73
2023/08/02 09:20:17;;;;;;;3.20;1.80;;;;;;;16.80;100.00;96942.22;4192050;28;20111;-73